sensor_id;sensor_type;location;lat;lon;timestamp;temperature;humidity
10051;DHT22;5065;46.942;7.432;2024-03-23T00:54:34;12.70;99.90
10051;DHT22;5065;46.942;7.432;2024-03-23T00:57:02;12.60;99.90
10051;DHT22;5065;46.942;7.432;2024-03-23T00:59:28;12.60;99.90
10051;DHT22;5065;46.942;7.432;2024-03-23T01:01:56;12.60;99.90
10051;DHT22;5065;46.942;7.432;2024-03-23T01:04:23;12.60;99.90
10051;DHT22;5065;46.942;7.432;2024-03-23T01:06:50;12.50;99.90
10051;DHT22;5065;46.942;7.432;2024-03-23T01:09:17;12.50;99.90
10051;DHT22;5065;46.942;7.432;2024-03-23T01:11:44;12.50;99.90
10051;DHT22;5065;46.942;7.432;2024-03-23T01:14:11;12.50;99.90
10051;DHT22;5065;46.942;7.432;2024-03-23T01:16:38;12.50;99.90
10051;DHT22;5065;46.942;7.432;2024-03-23T01:19:05;12.50;99.90
10051;DHT22;5065;46.942;7.432;2024-03-23T01:21:31;12.50;99.90
10051;DHT22;5065;46.942;7.432;2024-03-23T01:23:59;12.40;99.90
10051;DHT22;5065;46.942;7.432;2024-03-23T01:26:26;12.40;99.90
10051;DHT22;5065;46.942;7.432;2024-03-23T01:28:53;12.40;99.90
10051;DHT22;5065;46.942;7.432;2024-03-23T01:31:19;12.50;99.90
10051;DHT22;5065;46.942;7.432;2024-03-23T01:33:46;12.40;99.90
10051;DHT22;5065;46.942;7.432;2024-03-23T01:36:13;12.40;99.90
10051;DHT22;5065;46.942;7.432;2024-03-23T01:38:40;12.50;99.90
10051;DHT22;5065;46.942;7.432;2024-03-23T01:41:06;12.40;99.90
10051;DHT22;5065;46.942;7.432;2024-03-23T01:43:34;12.40;99.90
10051;DHT22;5065;46.942;7.432;2024-03-23T01:46:01;12.40;99.90
10051;DHT22;5065;46.942;7.432;2024-03-23T01:48:28;12.40;99.90
10051;DHT22;5065;46.942;7.432;2024-03-23T01:50:56;12.40;99.90
10051;DHT22;5065;46.942;7.432;2024-03-23T01:53:24;12.30;99.90
10051;DHT22;5065;46.942;7.432;2024-03-23T01:55:51;12.30;99.90
10051;DHT22;5065;46.942;7.432;2024-03-23T01:58:18;12.40;99.90
10051;DHT22;5065;46.942;7.432;2024-03-23T02:00:46;12.50;99.90
10051;DHT22;5065;46.942;7.432;2024-03-23T02:03:22;12.50;99.90
10051;DHT22;5065;46.942;7.432;2024-03-23T02:05:49;12.50;99.90
10051;DHT22;5065;46.942;7.432;2024-03-23T02:08:17;12.50;99.90
10051;DHT22;5065;46.942;7.432;2024-03-23T02:10:44;12.50;99.90
10051;DHT22;5065;46.942;7.432;2024-03-23T02:13:11;12.40;99.90
10051;DHT22;5065;46.942;7.432;2024-03-23T02:15:38;12.40;99.90
10051;DHT22;5065;46.942;7.432;2024-03-23T02:18:08;12.40;99.90
10051;DHT22;5065;46.942;7.432;2024-03-23T02:20:34;12.50;99.90
10051;DHT22;5065;46.942;7.432;2024-03-23T02:23:03;12.50;99.90
10051;DHT22;5065;46.942;7.432;2024-03-23T02:25:31;12.60;99.90
10051;DHT22;5065;46.942;7.432;2024-03-23T02:27:59;12.60;99.90
10051;DHT22;5065;46.942;7.432;2024-03-23T02:30:25;12.60;99.90
10051;DHT22;5065;46.942;7.432;2024-03-23T02:32:52;12.50;99.90
10051;DHT22;5065;46.942;7.432;2024-03-23T02:35:18;12.50;99.90
10051;DHT22;5065;46.942;7.432;2024-03-23T02:37:46;12.50;99.90
10051;DHT22;5065;46.942;7.432;2024-03-23T02:40:14;12.40;99.90
10051;DHT22;5065;46.942;7.432;2024-03-23T02:42:41;12.40;99.90
10051;DHT22;5065;46.942;7.432;2024-03-23T02:45:07;12.30;99.90
10051;DHT22;5065;46.942;7.432;2024-03-23T02:47:34;12.30;99.90
10051;DHT22;5065;46.942;7.432;2024-03-23T02:50:00;12.30;99.90
10051;DHT22;5065;46.942;7.432;2024-03-23T02:52:27;12.30;99.90
10051;DHT22;5065;46.942;7.432;2024-03-23T02:54:53;12.30;99.90
10051;DHT22;5065;46.942;7.432;2024-03-23T02:57:22;12.30;99.90
10051;DHT22;5065;46.942;7.432;2024-03-23T02:59:48;12.20;99.90
10051;DHT22;5065;46.942;7.432;2024-03-23T03:02:16;12.30;99.90
10051;DHT22;5065;46.942;7.432;2024-03-23T03:04:42;12.30;99.90
10051;DHT22;5065;46.942;7.432;2024-03-23T03:07:09;12.30;99.90
10051;DHT22;5065;46.942;7.432;2024-03-23T03:09:35;12.30;99.90
10051;DHT22;5065;46.942;7.432;2024-03-23T03:12:05;12.40;99.90
10051;DHT22;5065;46.942;7.432;2024-03-23T03:14:32;12.30;99.90
10051;DHT22;5065;46.942;7.432;2024-03-23T03:16:59;12.30;99.90
10051;DHT22;5065;46.942;7.432;2024-03-23T03:19:26;12.20;99.90
10051;DHT22;5065;46.942;7.432;2024-03-23T03:21:53;12.30;99.90
10051;DHT22;5065;46.942;7.432;2024-03-23T03:24:19;12.20;99.90
10051;DHT22;5065;46.942;7.432;2024-03-23T03:26:46;12.20;99.90
10051;DHT22;5065;46.942;7.432;2024-03-23T03:29:12;12.20;99.90
10051;DHT22;5065;46.942;7.432;2024-03-23T03:31:42;12.20;99.90
10051;DHT22;5065;46.942;7.432;2024-03-23T03:34:08;12.20;99.90
10051;DHT22;5065;46.942;7.432;2024-03-23T03:36:35;12.20;99.90
10051;DHT22;5065;46.942;7.432;2024-03-23T03:39:02;12.10;99.90
10051;DHT22;5065;46.942;7.432;2024-03-23T03:41:30;12.10;99.90
10051;DHT22;5065;46.942;7.432;2024-03-23T03:43:57;12.00;99.90
10051;DHT22;5065;46.942;7.432;2024-03-23T03:46:27;11.90;99.90
10051;DHT22;5065;46.942;7.432;2024-03-23T03:48:55;11.90;99.90
10051;DHT22;5065;46.942;7.432;2024-03-23T03:51:22;11.90;99.90
10051;DHT22;5065;46.942;7.432;2024-03-23T03:53:48;11.90;99.90
10051;DHT22;5065;46.942;7.432;2024-03-23T03:56:16;11.90;99.90
10051;DHT22;5065;46.942;7.432;2024-03-23T03:58:42;11.90;99.90
10051;DHT22;5065;46.942;7.432;2024-03-23T04:01:09;12.00;99.90
10051;DHT22;5065;46.942;7.432;2024-03-23T04:03:35;12.00;99.90
10051;DHT22;5065;46.942;7.432;2024-03-23T04:06:06;12.00;99.90
10051;DHT22;5065;46.942;7.432;2024-03-23T04:08:32;11.90;99.90
10051;DHT22;5065;46.942;7.432;2024-03-23T04:10:59;11.90;99.90
10051;DHT22;5065;46.942;7.432;2024-03-23T04:13:26;11.90;99.90
10051;DHT22;5065;46.942;7.432;2024-03-23T04:15:54;11.90;99.90
10051;DHT22;5065;46.942;7.432;2024-03-23T04:18:20;11.90;99.90
10051;DHT22;5065;46.942;7.432;2024-03-23T04:20:48;12.00;99.90
10051;DHT22;5065;46.942;7.432;2024-03-23T04:23:15;12.00;99.90
10051;DHT22;5065;46.942;7.432;2024-03-23T04:25:42;12.00;99.90
10051;DHT22;5065;46.942;7.432;2024-03-23T04:28:08;11.90;99.90
10051;DHT22;5065;46.942;7.432;2024-03-23T04:30:36;11.90;99.90
10051;DHT22;5065;46.942;7.432;2024-03-23T04:33:03;11.90;99.90
10051;DHT22;5065;46.942;7.432;2024-03-23T04:35:30;12.00;99.90
10051;DHT22;5065;46.942;7.432;2024-03-23T04:37:57;11.90;99.90
10051;DHT22;5065;46.942;7.432;2024-03-23T04:40:26;12.00;99.90
10051;DHT22;5065;46.942;7.432;2024-03-23T04:42:53;12.00;99.90
10051;DHT22;5065;46.942;7.432;2024-03-23T04:45:20;12.10;99.90
10051;DHT22;5065;46.942;7.432;2024-03-23T04:47:47;12.10;99.90
10051;DHT22;5065;46.942;7.432;2024-03-23T04:50:13;12.20;99.90
10051;DHT22;5065;46.942;7.432;2024-03-23T04:52:40;12.20;99.90
10051;DHT22;5065;46.942;7.432;2024-03-23T04:55:07;12.20;99.90
10051;DHT22;5065;46.942;7.432;2024-03-23T04:57:36;12.30;99.90
10051;DHT22;5065;46.942;7.432;2024-03-23T05:00:02;12.40;99.90
10051;DHT22;5065;46.942;7.432;2024-03-23T05:02:40;12.60;99.90
10051;DHT22;5065;46.942;7.432;2024-03-23T05:05:06;12.80;99.90
10051;DHT22;5065;46.942;7.432;2024-03-23T05:07:34;12.90;99.90
10051;DHT22;5065;46.942;7.432;2024-03-23T05:10:00;13.00;99.90
10051;DHT22;5065;46.942;7.432;2024-03-23T05:12:27;13.10;99.90
10051;DHT22;5065;46.942;7.432;2024-03-23T05:14:54;13.20;99.90
10051;DHT22;5065;46.942;7.432;2024-03-23T05:17:21;13.20;99.90
10051;DHT22;5065;46.942;7.432;2024-03-23T05:19:47;13.20;99.90
10051;DHT22;5065;46.942;7.432;2024-03-23T05:22:15;13.20;99.90
10051;DHT22;5065;46.942;7.432;2024-03-23T05:24:41;13.30;99.90
10051;DHT22;5065;46.942;7.432;2024-03-23T05:27:08;13.30;99.90
10051;DHT22;5065;46.942;7.432;2024-03-23T05:29:34;13.20;99.90
10051;DHT22;5065;46.942;7.432;2024-03-23T05:32:02;13.20;99.90
10051;DHT22;5065;46.942;7.432;2024-03-23T05:34:29;13.20;99.90
10051;DHT22;5065;46.942;7.432;2024-03-23T05:36:56;13.10;99.90
10051;DHT22;5065;46.942;7.432;2024-03-23T05:39:22;13.10;99.90
10051;DHT22;5065;46.942;7.432;2024-03-23T05:41:49;13.10;99.90
10051;DHT22;5065;46.942;7.432;2024-03-23T05:44:16;13.00;99.90
10051;DHT22;5065;46.942;7.432;2024-03-23T05:46:43;13.00;99.90
10051;DHT22;5065;46.942;7.432;2024-03-23T05:49:15;12.90;99.90
10051;DHT22;5065;46.942;7.432;2024-03-23T05:51:43;12.90;99.90
10051;DHT22;5065;46.942;7.432;2024-03-23T05:54:09;13.00;99.90
10051;DHT22;5065;46.942;7.432;2024-03-23T05:56:36;13.00;99.90
10051;DHT22;5065;46.942;7.432;2024-03-23T05:59:02;13.00;99.90
10051;DHT22;5065;46.942;7.432;2024-03-23T06:01:30;12.90;99.90
10051;DHT22;5065;46.942;7.432;2024-03-23T06:03:58;13.00;99.90
10051;DHT22;5065;46.942;7.432;2024-03-23T06:06:28;12.90;99.90
10051;DHT22;5065;46.942;7.432;2024-03-23T06:08:56;12.90;99.90
10051;DHT22;5065;46.942;7.432;2024-03-23T06:11:23;12.90;99.90
10051;DHT22;5065;46.942;7.432;2024-03-23T06:13:49;12.90;99.90
10051;DHT22;5065;46.942;7.432;2024-03-23T06:16:16;12.90;99.90
10051;DHT22;5065;46.942;7.432;2024-03-23T06:18:42;12.90;99.90
10051;DHT22;5065;46.942;7.432;2024-03-23T06:21:13;13.00;99.90
10051;DHT22;5065;46.942;7.432;2024-03-23T06:23:42;13.00;99.90
10051;DHT22;5065;46.942;7.432;2024-03-23T06:26:13;13.00;99.90
10051;DHT22;5065;46.942;7.432;2024-03-23T06:28:40;13.10;99.90
10051;DHT22;5065;46.942;7.432;2024-03-23T06:31:09;13.10;99.90
10051;DHT22;5065;46.942;7.432;2024-03-23T06:33:35;13.10;99.90
10051;DHT22;5065;46.942;7.432;2024-03-23T06:36:03;13.10;99.90
10051;DHT22;5065;46.942;7.432;2024-03-23T06:38:29;13.10;99.90
10051;DHT22;5065;46.942;7.432;2024-03-23T06:40:57;13.10;99.90
10051;DHT22;5065;46.942;7.432;2024-03-23T06:43:23;13.20;99.90
10051;DHT22;5065;46.942;7.432;2024-03-23T06:45:53;13.10;99.90
10051;DHT22;5065;46.942;7.432;2024-03-23T06:48:19;13.20;99.90
10051;DHT22;5065;46.942;7.432;2024-03-23T06:50:46;13.10;99.90
10051;DHT22;5065;46.942;7.432;2024-03-23T06:53:14;13.10;99.90
10051;DHT22;5065;46.942;7.432;2024-03-23T06:55:40;13.10;99.90
10051;DHT22;5065;46.942;7.432;2024-03-23T06:58:09;13.20;99.90
10051;DHT22;5065;46.942;7.432;2024-03-23T07:00:35;13.20;99.90
10051;DHT22;5065;46.942;7.432;2024-03-23T07:03:03;13.10;99.90
10051;DHT22;5065;46.942;7.432;2024-03-23T07:05:29;13.20;99.90
10051;DHT22;5065;46.942;7.432;2024-03-23T07:07:56;13.10;99.90
10051;DHT22;5065;46.942;7.432;2024-03-23T07:10:22;13.10;99.90
10051;DHT22;5065;46.942;7.432;2024-03-23T07:12:50;13.10;99.90
10051;DHT22;5065;46.942;7.432;2024-03-23T07:15:17;13.20;99.90
10051;DHT22;5065;46.942;7.432;2024-03-23T07:17:47;13.20;99.90
10051;DHT22;5065;46.942;7.432;2024-03-23T07:20:13;13.20;99.90
10051;DHT22;5065;46.942;7.432;2024-03-23T07:22:40;13.20;99.90
10051;DHT22;5065;46.942;7.432;2024-03-23T07:25:07;13.20;99.90
10051;DHT22;5065;46.942;7.432;2024-03-23T07:27:34;13.20;99.90
10051;DHT22;5065;46.942;7.432;2024-03-23T07:30:01;13.30;99.90
10051;DHT22;5065;46.942;7.432;2024-03-23T07:32:29;13.30;99.90
10051;DHT22;5065;46.942;7.432;2024-03-23T07:34:55;13.20;99.90
10051;DHT22;5065;46.942;7.432;2024-03-23T07:37:25;13.30;99.90
10051;DHT22;5065;46.942;7.432;2024-03-23T07:39:51;13.30;99.90
10051;DHT22;5065;46.942;7.432;2024-03-23T07:42:18;13.30;99.90
10051;DHT22;5065;46.942;7.432;2024-03-23T07:44:44;13.20;99.90
10051;DHT22;5065;46.942;7.432;2024-03-23T07:47:12;13.20;99.90
10051;DHT22;5065;46.942;7.432;2024-03-23T07:49:39;13.20;99.90
10051;DHT22;5065;46.942;7.432;2024-03-23T07:52:07;13.30;99.90
10051;DHT22;5065;46.942;7.432;2024-03-23T07:54:34;13.20;99.90
10051;DHT22;5065;46.942;7.432;2024-03-23T07:57:01;13.20;99.90
10051;DHT22;5065;46.942;7.432;2024-03-23T07:59:27;13.00;99.90
10051;DHT22;5065;46.942;7.432;2024-03-23T08:01:57;13.00;99.90
10051;DHT22;5065;46.942;7.432;2024-03-23T08:04:23;12.90;99.90
10051;DHT22;5065;46.942;7.432;2024-03-23T08:06:52;12.90;99.90
10051;DHT22;5065;46.942;7.432;2024-03-23T08:09:18;12.90;99.90
10051;DHT22;5065;46.942;7.432;2024-03-23T08:11:45;12.90;99.90
10051;DHT22;5065;46.942;7.432;2024-03-23T08:14:12;12.90;99.90
10051;DHT22;5065;46.942;7.432;2024-03-23T08:16:41;12.90;99.90
10051;DHT22;5065;46.942;7.432;2024-03-23T08:19:07;12.80;99.90
10051;DHT22;5065;46.942;7.432;2024-03-23T08:21:35;12.70;99.90
10051;DHT22;5065;46.942;7.432;2024-03-23T08:24:03;12.80;99.90
10051;DHT22;5065;46.942;7.432;2024-03-23T08:26:31;12.80;99.90
10051;DHT22;5065;46.942;7.432;2024-03-23T08:28:57;12.70;99.90
10051;DHT22;5065;46.942;7.432;2024-03-23T08:31:24;12.70;99.90
10051;DHT22;5065;46.942;7.432;2024-03-23T08:33:50;12.70;99.90
10051;DHT22;5065;46.942;7.432;2024-03-23T08:36:18;12.70;99.90
10051;DHT22;5065;46.942;7.432;2024-03-23T08:38:44;12.60;99.90
10051;DHT22;5065;46.942;7.432;2024-03-23T08:41:12;12.70;99.90
10051;DHT22;5065;46.942;7.432;2024-03-23T08:43:40;12.70;99.90
10051;DHT22;5065;46.942;7.432;2024-03-23T08:46:08;12.60;99.90
10051;DHT22;5065;46.942;7.432;2024-03-23T08:48:36;12.70;99.90
10051;DHT22;5065;46.942;7.432;2024-03-23T08:51:04;12.70;99.90
10051;DHT22;5065;46.942;7.432;2024-03-23T08:53:30;12.70;99.90
10051;DHT22;5065;46.942;7.432;2024-03-23T08:55:58;12.60;99.90
10051;DHT22;5065;46.942;7.432;2024-03-23T08:58:28;12.70;99.90
10051;DHT22;5065;46.942;7.432;2024-03-23T09:00:57;12.60;99.90
10051;DHT22;5065;46.942;7.432;2024-03-23T09:03:23;12.50;99.90
10051;DHT22;5065;46.942;7.432;2024-03-23T09:05:51;12.40;99.90
10051;DHT22;5065;46.942;7.432;2024-03-23T09:08:18;12.40;99.90
10051;DHT22;5065;46.942;7.432;2024-03-23T09:10:46;12.30;99.90
10051;DHT22;5065;46.942;7.432;2024-03-23T09:13:13;12.40;99.90
10051;DHT22;5065;46.942;7.432;2024-03-23T09:15:50;12.50;99.90
10051;DHT22;5065;46.942;7.432;2024-03-23T09:18:16;12.50;99.90
10051;DHT22;5065;46.942;7.432;2024-03-23T09:20:44;12.50;99.90
10051;DHT22;5065;46.942;7.432;2024-03-23T09:23:10;12.60;99.90
10051;DHT22;5065;46.942;7.432;2024-03-23T09:25:37;12.70;99.90
10051;DHT22;5065;46.942;7.432;2024-03-23T09:28:05;12.80;99.90
10051;DHT22;5065;46.942;7.432;2024-03-23T09:30:32;12.80;99.90
10051;DHT22;5065;46.942;7.432;2024-03-23T09:33:00;12.90;99.90
10051;DHT22;5065;46.942;7.432;2024-03-23T09:35:27;13.10;99.90
10051;DHT22;5065;46.942;7.432;2024-03-23T09:37:54;13.20;99.90
10051;DHT22;5065;46.942;7.432;2024-03-23T09:40:21;13.40;99.90
10051;DHT22;5065;46.942;7.432;2024-03-23T09:42:50;13.50;99.90
10051;DHT22;5065;46.942;7.432;2024-03-23T09:45:21;13.70;99.90
10051;DHT22;5065;46.942;7.432;2024-03-23T09:47:47;13.90;99.90
10051;DHT22;5065;46.942;7.432;2024-03-23T09:50:18;13.90;99.90
10051;DHT22;5065;46.942;7.432;2024-03-23T09:52:46;13.90;99.90
10051;DHT22;5065;46.942;7.432;2024-03-23T09:55:13;14.00;99.90
10051;DHT22;5065;46.942;7.432;2024-03-23T09:57:39;14.00;99.90
10051;DHT22;5065;46.942;7.432;2024-03-23T10:00:10;14.00;99.90
10051;DHT22;5065;46.942;7.432;2024-03-23T10:02:38;13.90;99.90
10051;DHT22;5065;46.942;7.432;2024-03-23T10:05:21;13.90;99.90
10051;DHT22;5065;46.942;7.432;2024-03-23T10:07:48;13.90;99.90
10051;DHT22;5065;46.942;7.432;2024-03-23T10:10:16;13.90;99.90
10051;DHT22;5065;46.942;7.432;2024-03-23T10:12:44;13.90;99.90
10051;DHT22;5065;46.942;7.432;2024-03-23T10:15:18;13.90;99.90
10051;DHT22;5065;46.942;7.432;2024-03-23T10:17:44;13.80;99.90
10051;DHT22;5065;46.942;7.432;2024-03-23T10:20:11;13.70;99.90
10051;DHT22;5065;46.942;7.432;2024-03-23T10:22:39;13.70;99.90
10051;DHT22;5065;46.942;7.432;2024-03-23T10:25:10;13.70;99.90
10051;DHT22;5065;46.942;7.432;2024-03-23T10:27:36;13.60;99.90
10051;DHT22;5065;46.942;7.432;2024-03-23T10:30:11;13.50;99.90
10051;DHT22;5065;46.942;7.432;2024-03-23T10:32:38;13.50;99.90
10051;DHT22;5065;46.942;7.432;2024-03-23T10:35:15;13.50;99.90
10051;DHT22;5065;46.942;7.432;2024-03-23T10:37:43;13.40;99.90
10051;DHT22;5065;46.942;7.432;2024-03-23T10:40:12;13.30;99.90
10051;DHT22;5065;46.942;7.432;2024-03-23T10:42:41;13.20;99.90
10051;DHT22;5065;46.942;7.432;2024-03-23T10:45:09;13.20;99.90
10051;DHT22;5065;46.942;7.432;2024-03-23T10:47:37;13.10;99.90
10051;DHT22;5065;46.942;7.432;2024-03-23T10:50:04;13.10;99.90
10051;DHT22;5065;46.942;7.432;2024-03-23T10:52:31;13.00;99.90
10051;DHT22;5065;46.942;7.432;2024-03-23T10:55:01;12.90;99.90
10051;DHT22;5065;46.942;7.432;2024-03-23T10:57:34;13.00;99.90
10051;DHT22;5065;46.942;7.432;2024-03-23T11:00:03;12.90;99.90
10051;DHT22;5065;46.942;7.432;2024-03-23T11:02:29;13.00;99.90
10051;DHT22;5065;46.942;7.432;2024-03-23T11:04:57;13.00;99.90
10051;DHT22;5065;46.942;7.432;2024-03-23T11:07:30;13.00;99.90
10051;DHT22;5065;46.942;7.432;2024-03-23T11:09:59;13.10;99.90
10051;DHT22;5065;46.942;7.432;2024-03-23T11:12:27;13.10;99.90
10051;DHT22;5065;46.942;7.432;2024-03-23T11:15:02;13.20;99.90
10051;DHT22;5065;46.942;7.432;2024-03-23T11:17:29;13.20;99.90
10051;DHT22;5065;46.942;7.432;2024-03-23T11:19:57;13.30;99.90
10051;DHT22;5065;46.942;7.432;2024-03-23T11:22:42;13.40;99.90
10051;DHT22;5065;46.942;7.432;2024-03-23T11:25:18;13.50;99.90
10051;DHT22;5065;46.942;7.432;2024-03-23T11:27:47;13.60;99.90
10051;DHT22;5065;46.942;7.432;2024-03-23T11:30:16;13.70;99.90
10051;DHT22;5065;46.942;7.432;2024-03-23T11:32:44;13.60;99.90
10051;DHT22;5065;46.942;7.432;2024-03-23T11:35:24;13.70;99.90
10051;DHT22;5065;46.942;7.432;2024-03-23T11:38:04;13.70;99.90
10051;DHT22;5065;46.942;7.432;2024-03-23T11:40:34;13.70;99.90
10051;DHT22;5065;46.942;7.432;2024-03-23T11:43:02;13.80;99.90
10051;DHT22;5065;46.942;7.432;2024-03-23T11:45:34;13.70;99.90
10051;DHT22;5065;46.942;7.432;2024-03-23T11:48:08;13.80;99.90
10051;DHT22;5065;46.942;7.432;2024-03-23T11:50:37;13.90;99.90
10051;DHT22;5065;46.942;7.432;2024-03-23T11:53:15;14.00;99.90
10051;DHT22;5065;46.942;7.432;2024-03-23T11:55:47;14.10;99.90
10051;DHT22;5065;46.942;7.432;2024-03-23T11:58:15;14.20;99.90
10051;DHT22;5065;46.942;7.432;2024-03-23T12:00:43;14.10;99.90
10051;DHT22;5065;46.942;7.432;2024-03-23T12:03:16;14.10;99.90
10051;DHT22;5065;46.942;7.432;2024-03-23T12:05:48;14.10;99.90
10051;DHT22;5065;46.942;7.432;2024-03-23T12:08:22;14.10;99.90
10051;DHT22;5065;46.942;7.432;2024-03-23T12:10:52;14.10;99.90
10051;DHT22;5065;46.942;7.432;2024-03-23T12:13:20;14.00;99.90
10051;DHT22;5065;46.942;7.432;2024-03-23T12:15:49;14.00;99.90
10051;DHT22;5065;46.942;7.432;2024-03-23T12:18:15;14.00;99.90
10051;DHT22;5065;46.942;7.432;2024-03-23T12:20:42;14.00;99.90
10051;DHT22;5065;46.942;7.432;2024-03-23T12:23:10;14.00;99.90
10051;DHT22;5065;46.942;7.432;2024-03-23T12:25:38;14.00;99.90
10051;DHT22;5065;46.942;7.432;2024-03-23T12:28:07;14.00;99.90
10051;DHT22;5065;46.942;7.432;2024-03-23T12:30:35;14.00;99.90
10051;DHT22;5065;46.942;7.432;2024-03-23T12:33:01;13.90;99.90
10051;DHT22;5065;46.942;7.432;2024-03-23T12:35:29;14.00;99.90
10051;DHT22;5065;46.942;7.432;2024-03-23T12:37:55;13.90;99.90
10051;DHT22;5065;46.942;7.432;2024-03-23T12:40:22;13.90;99.90
10051;DHT22;5065;46.942;7.432;2024-03-23T12:42:48;13.80;99.90
10051;DHT22;5065;46.942;7.432;2024-03-23T12:45:17;13.90;99.90
10051;DHT22;5065;46.942;7.432;2024-03-23T12:47:43;13.90;99.90
10051;DHT22;5065;46.942;7.432;2024-03-23T12:50:10;14.00;99.90
10051;DHT22;5065;46.942;7.432;2024-03-23T12:52:37;14.00;99.90
10051;DHT22;5065;46.942;7.432;2024-03-23T12:55:05;14.10;99.90
10051;DHT22;5065;46.942;7.432;2024-03-23T12:57:32;14.10;99.90
10051;DHT22;5065;46.942;7.432;2024-03-23T13:00:00;14.10;99.90
10051;DHT22;5065;46.942;7.432;2024-03-23T13:02:27;14.10;99.90
10051;DHT22;5065;46.942;7.432;2024-03-23T13:04:55;14.10;99.90
10051;DHT22;5065;46.942;7.432;2024-03-23T13:07:22;14.10;99.90
10051;DHT22;5065;46.942;7.432;2024-03-23T13:09:53;14.00;99.90
10051;DHT22;5065;46.942;7.432;2024-03-23T13:12:19;14.00;99.90
10051;DHT22;5065;46.942;7.432;2024-03-23T13:14:47;14.00;99.90
10051;DHT22;5065;46.942;7.432;2024-03-23T13:17:13;13.90;99.90
10051;DHT22;5065;46.942;7.432;2024-03-23T13:19:42;13.90;99.90
10051;DHT22;5065;46.942;7.432;2024-03-23T13:22:08;13.90;99.90
10051;DHT22;5065;46.942;7.432;2024-03-23T13:24:37;13.90;99.90
10051;DHT22;5065;46.942;7.432;2024-03-23T13:27:04;13.80;99.90
10051;DHT22;5065;46.942;7.432;2024-03-23T13:29:33;13.80;99.90
10051;DHT22;5065;46.942;7.432;2024-03-23T13:32:00;13.90;99.90
10051;DHT22;5065;46.942;7.432;2024-03-23T13:34:27;13.80;99.90
10051;DHT22;5065;46.942;7.432;2024-03-23T13:36:56;13.70;99.90
10051;DHT22;5065;46.942;7.432;2024-03-23T13:39:25;13.70;99.90
10051;DHT22;5065;46.942;7.432;2024-03-23T13:41:53;13.70;99.90
10051;DHT22;5065;46.942;7.432;2024-03-23T13:44:20;13.70;99.90
10051;DHT22;5065;46.942;7.432;2024-03-23T13:46:46;13.80;99.90
10051;DHT22;5065;46.942;7.432;2024-03-23T13:49:25;13.80;99.90
10051;DHT22;5065;46.942;7.432;2024-03-23T13:51:52;13.80;99.90
10051;DHT22;5065;46.942;7.432;2024-03-23T13:54:21;13.90;99.90
10051;DHT22;5065;46.942;7.432;2024-03-23T13:56:48;13.90;99.90
10051;DHT22;5065;46.942;7.432;2024-03-23T13:59:15;13.90;99.90
10051;DHT22;5065;46.942;7.432;2024-03-23T14:01:44;13.80;99.90
10051;DHT22;5065;46.942;7.432;2024-03-23T14:04:12;13.80;99.90
10051;DHT22;5065;46.942;7.432;2024-03-23T14:06:38;13.70;99.90
10051;DHT22;5065;46.942;7.432;2024-03-23T14:09:05;13.80;99.90
10051;DHT22;5065;46.942;7.432;2024-03-23T14:11:36;13.70;99.90
10051;DHT22;5065;46.942;7.432;2024-03-23T14:14:03;13.70;99.90
10051;DHT22;5065;46.942;7.432;2024-03-23T14:16:29;13.60;99.90
10051;DHT22;5065;46.942;7.432;2024-03-23T14:18:57;13.60;99.90
10051;DHT22;5065;46.942;7.432;2024-03-23T14:21:23;13.60;99.90
10051;DHT22;5065;46.942;7.432;2024-03-23T14:23:51;13.60;99.90
10051;DHT22;5065;46.942;7.432;2024-03-23T14:26:17;13.60;99.90
10051;DHT22;5065;46.942;7.432;2024-03-23T14:28:45;13.60;99.90
10051;DHT22;5065;46.942;7.432;2024-03-23T14:31:12;13.60;99.90
10051;DHT22;5065;46.942;7.432;2024-03-23T14:33:39;13.60;99.90
10051;DHT22;5065;46.942;7.432;2024-03-23T14:36:11;13.60;99.90
10051;DHT22;5065;46.942;7.432;2024-03-23T14:38:39;13.60;99.90
10051;DHT22;5065;46.942;7.432;2024-03-23T14:41:05;13.50;99.90
10051;DHT22;5065;46.942;7.432;2024-03-23T14:43:32;13.60;99.90
10051;DHT22;5065;46.942;7.432;2024-03-23T14:46:09;13.60;99.90
10051;DHT22;5065;46.942;7.432;2024-03-23T14:48:37;13.50;99.90
10051;DHT22;5065;46.942;7.432;2024-03-23T14:51:04;13.50;99.90
10051;DHT22;5065;46.942;7.432;2024-03-23T14:53:32;13.50;99.90
10051;DHT22;5065;46.942;7.432;2024-03-23T14:55:59;13.60;99.90
10051;DHT22;5065;46.942;7.432;2024-03-23T14:58:27;13.60;99.90
10051;DHT22;5065;46.942;7.432;2024-03-23T15:00:59;13.50;99.90
10051;DHT22;5065;46.942;7.432;2024-03-23T15:03:28;13.50;99.90
10051;DHT22;5065;46.942;7.432;2024-03-23T15:05:54;13.50;99.90
10051;DHT22;5065;46.942;7.432;2024-03-23T15:08:22;13.40;99.90
10051;DHT22;5065;46.942;7.432;2024-03-23T15:10:48;13.40;99.90
10051;DHT22;5065;46.942;7.432;2024-03-23T15:13:15;13.30;99.90
10051;DHT22;5065;46.942;7.432;2024-03-23T15:15:42;13.30;99.90
10051;DHT22;5065;46.942;7.432;2024-03-23T15:18:11;13.20;99.90
10051;DHT22;5065;46.942;7.432;2024-03-23T15:20:39;13.10;99.90
10051;DHT22;5065;46.942;7.432;2024-03-23T15:23:06;13.00;99.90
10051;DHT22;5065;46.942;7.432;2024-03-23T15:25:33;13.10;99.90
10051;DHT22;5065;46.942;7.432;2024-03-23T15:28:00;13.00;99.90
10051;DHT22;5065;46.942;7.432;2024-03-23T15:30:27;13.00;99.90
10051;DHT22;5065;46.942;7.432;2024-03-23T15:32:55;12.90;99.90
10051;DHT22;5065;46.942;7.432;2024-03-23T15:35:21;13.00;99.90
10051;DHT22;5065;46.942;7.432;2024-03-23T15:37:50;12.90;99.90
10051;DHT22;5065;46.942;7.432;2024-03-23T15:40:16;12.90;99.90
10051;DHT22;5065;46.942;7.432;2024-03-23T15:42:44;12.90;99.90
10051;DHT22;5065;46.942;7.432;2024-03-23T15:45:10;12.90;99.90
10051;DHT22;5065;46.942;7.432;2024-03-23T15:47:37;12.90;99.90
10051;DHT22;5065;46.942;7.432;2024-03-23T15:50:04;12.90;99.90
10051;DHT22;5065;46.942;7.432;2024-03-23T15:52:35;12.90;99.90
10051;DHT22;5065;46.942;7.432;2024-03-23T15:55:03;12.80;99.90
10051;DHT22;5065;46.942;7.432;2024-03-23T15:57:33;12.70;99.90
10051;DHT22;5065;46.942;7.432;2024-03-23T16:00:00;12.70;99.90
10051;DHT22;5065;46.942;7.432;2024-03-23T16:02:28;12.70;99.90
10051;DHT22;5065;46.942;7.432;2024-03-23T16:04:54;12.60;99.90
10051;DHT22;5065;46.942;7.432;2024-03-23T16:07:22;12.60;99.90
10051;DHT22;5065;46.942;7.432;2024-03-23T16:09:48;12.60;99.90
10051;DHT22;5065;46.942;7.432;2024-03-23T16:12:17;12.60;99.90
10051;DHT22;5065;46.942;7.432;2024-03-23T16:14:43;12.60;99.90
10051;DHT22;5065;46.942;7.432;2024-03-23T16:17:10;12.60;99.90
10051;DHT22;5065;46.942;7.432;2024-03-23T16:19:36;12.60;99.90
10051;DHT22;5065;46.942;7.432;2024-03-23T16:22:03;12.50;99.90
10051;DHT22;5065;46.942;7.432;2024-03-23T16:24:29;12.50;99.90
10051;DHT22;5065;46.942;7.432;2024-03-23T16:26:57;12.50;99.90
10051;DHT22;5065;46.942;7.432;2024-03-23T16:29:24;12.50;99.90
10051;DHT22;5065;46.942;7.432;2024-03-23T16:31:51;12.40;99.90
10051;DHT22;5065;46.942;7.432;2024-03-23T16:34:17;12.40;99.90
10051;DHT22;5065;46.942;7.432;2024-03-23T16:36:44;12.50;99.90
10051;DHT22;5065;46.942;7.432;2024-03-23T16:39:10;12.50;99.90
10051;DHT22;5065;46.942;7.432;2024-03-23T16:41:37;12.50;99.90